sensor_id;sensor_type;location;lat;lon;timestamp;P1;durP1;ratioP1;P2;durP2;ratioP2
62268;SDS011;56517;51.634;5.566;2023-04-25T00:00:02;23.70;;;10.60;;
62268;SDS011;56517;51.634;5.566;2023-04-25T00:01:24;22.13;;;10.80;;
62268;SDS011;56517;51.634;5.566;2023-04-25T00:02:45;20.73;;;9.70;;
62268;SDS011;56517;51.634;5.566;2023-04-25T00:04:07;14.80;;;9.98;;
62268;SDS011;56517;51.634;5.566;2023-04-25T00:05:28;17.37;;;10.30;;
62268;SDS011;56517;51.634;5.566;2023-04-25T00:06:50;21.73;;;10.48;;
62268;SDS011;56517;51.634;5.566;2023-04-25T00:08:11;18.50;;;10.15;;
62268;SDS011;56517;51.634;5.566;2023-04-25T00:09:31;22.10;;;10.30;;
62268;SDS011;56517;51.634;5.566;2023-04-25T00:10:52;20.90;;;9.80;;
62268;SDS011;56517;51.634;5.566;2023-04-25T00:12:13;23.65;;;10.35;;
62268;SDS011;56517;51.634;5.566;2023-04-25T00:13:34;21.58;;;11.07;;
62268;SDS011;56517;51.634;5.566;2023-04-25T00:14:55;24.33;;;10.45;;
62268;SDS011;56517;51.634;5.566;2023-04-25T00:17:39;19.60;;;10.45;;
62268;SDS011;56517;51.634;5.566;2023-04-25T00:19:00;16.70;;;10.77;;
62268;SDS011;56517;51.634;5.566;2023-04-25T00:20:22;17.98;;;9.55;;
62268;SDS011;56517;51.634;5.566;2023-04-25T00:21:44;19.15;;;9.60;;
62268;SDS011;56517;51.634;5.566;2023-04-25T00:23:06;18.88;;;10.25;;
62268;SDS011;56517;51.634;5.566;2023-04-25T00:24:28;20.15;;;9.73;;
62268;SDS011;56517;51.634;5.566;2023-04-25T00:25:49;15.15;;;10.20;;
62268;SDS011;56517;51.634;5.566;2023-04-25T00:27:10;15.77;;;9.48;;
62268;SDS011;56517;51.634;5.566;2023-04-25T00:28:31;17.45;;;9.63;;
62268;SDS011;56517;51.634;5.566;2023-04-25T00:29:52;19.67;;;9.75;;
62268;SDS011;56517;51.634;5.566;2023-04-25T00:31:13;21.17;;;11.07;;
62268;SDS011;56517;51.634;5.566;2023-04-25T00:32:34;22.88;;;10.52;;
62268;SDS011;56517;51.634;5.566;2023-04-25T00:33:55;23.95;;;10.25;;
62268;SDS011;56517;51.634;5.566;2023-04-25T00:35:16;26.95;;;10.93;;
62268;SDS011;56517;51.634;5.566;2023-04-25T00:36:37;23.17;;;9.93;;
62268;SDS011;56517;51.634;5.566;2023-04-25T00:37:58;22.20;;;11.05;;
62268;SDS011;56517;51.634;5.566;2023-04-25T00:39:19;17.67;;;9.70;;
62268;SDS011;56517;51.634;5.566;2023-04-25T00:40:40;17.17;;;9.75;;
62268;SDS011;56517;51.634;5.566;2023-04-25T00:42:04;27.15;;;10.20;;
62268;SDS011;56517;51.634;5.566;2023-04-25T00:43:26;17.50;;;10.20;;
62268;SDS011;56517;51.634;5.566;2023-04-25T00:44:47;19.23;;;9.05;;
62268;SDS011;56517;51.634;5.566;2023-04-25T00:46:08;15.63;;;9.15;;
62268;SDS011;56517;51.634;5.566;2023-04-25T00:47:29;20.98;;;9.18;;
62268;SDS011;56517;51.634;5.566;2023-04-25T00:48:50;21.88;;;10.40;;
62268;SDS011;56517;51.634;5.566;2023-04-25T00:50:11;17.60;;;9.20;;
62268;SDS011;56517;51.634;5.566;2023-04-25T00:51:32;22.92;;;10.35;;
62268;SDS011;56517;51.634;5.566;2023-04-25T00:52:53;22.70;;;9.70;;
62268;SDS011;56517;51.634;5.566;2023-04-25T00:54:14;23.27;;;11.30;;
62268;SDS011;56517;51.634;5.566;2023-04-25T00:55:36;23.85;;;10.15;;
62268;SDS011;56517;51.634;5.566;2023-04-25T00:56:57;21.58;;;10.50;;
62268;SDS011;56517;51.634;5.566;2023-04-25T00:58:18;22.42;;;10.38;;
62268;SDS011;56517;51.634;5.566;2023-04-25T00:59:39;18.23;;;9.57;;
62268;SDS011;56517;51.634;5.566;2023-04-25T01:01:02;21.08;;;10.20;;
62268;SDS011;56517;51.634;5.566;2023-04-25T01:08:07;21.27;;;10.25;;
62268;SDS011;56517;51.634;5.566;2023-04-25T01:09:28;21.85;;;10.32;;
62268;SDS011;56517;51.634;5.566;2023-04-25T01:10:50;23.40;;;10.65;;
62268;SDS011;56517;51.634;5.566;2023-04-25T01:12:11;23.73;;;10.40;;
62268;SDS011;56517;51.634;5.566;2023-04-25T01:13:33;21.08;;;10.85;;
62268;SDS011;56517;51.634;5.566;2023-04-25T01:14:54;26.33;;;10.18;;
62268;SDS011;56517;51.634;5.566;2023-04-25T01:16:15;20.95;;;10.05;;
62268;SDS011;56517;51.634;5.566;2023-04-25T01:17:36;25.60;;;11.55;;
62268;SDS011;56517;51.634;5.566;2023-04-25T01:18:57;24.95;;;11.00;;
62268;SDS011;56517;51.634;5.566;2023-04-25T01:20:19;24.08;;;11.20;;
62268;SDS011;56517;51.634;5.566;2023-04-25T01:21:41;20.98;;;10.35;;
62268;SDS011;56517;51.634;5.566;2023-04-25T01:23:02;24.23;;;10.98;;
62268;SDS011;56517;51.634;5.566;2023-04-25T01:24:23;23.38;;;10.90;;
62268;SDS011;56517;51.634;5.566;2023-04-25T01:25:45;25.02;;;11.07;;
62268;SDS011;56517;51.634;5.566;2023-04-25T01:27:06;23.88;;;11.13;;
62268;SDS011;56517;51.634;5.566;2023-04-25T01:28:27;20.92;;;10.57;;
62268;SDS011;56517;51.634;5.566;2023-04-25T01:29:48;26.57;;;11.10;;
62268;SDS011;56517;51.634;5.566;2023-04-25T01:31:10;19.90;;;10.35;;
62268;SDS011;56517;51.634;5.566;2023-04-25T01:32:31;20.75;;;10.88;;
62268;SDS011;56517;51.634;5.566;2023-04-25T01:33:58;22.17;;;10.25;;
62268;SDS011;56517;51.634;5.566;2023-04-25T01:35:19;23.92;;;10.73;;
62268;SDS011;56517;51.634;5.566;2023-04-25T01:36:40;32.33;;;13.02;;
62268;SDS011;56517;51.634;5.566;2023-04-25T01:38:01;36.05;;;14.50;;
62268;SDS011;56517;51.634;5.566;2023-04-25T01:39:22;25.02;;;10.52;;
62268;SDS011;56517;51.634;5.566;2023-04-25T01:40:44;26.92;;;11.48;;
62268;SDS011;56517;51.634;5.566;2023-04-25T01:42:05;23.42;;;11.57;;
62268;SDS011;56517;51.634;5.566;2023-04-25T01:43:26;23.40;;;10.27;;
62268;SDS011;56517;51.634;5.566;2023-04-25T01:44:47;22.95;;;11.32;;
62268;SDS011;56517;51.634;5.566;2023-04-25T01:46:08;18.90;;;10.30;;
62268;SDS011;56517;51.634;5.566;2023-04-25T01:47:32;23.73;;;11.43;;
62268;SDS011;56517;51.634;5.566;2023-04-25T01:48:53;25.27;;;11.57;;
62268;SDS011;56517;51.634;5.566;2023-04-25T01:50:14;23.63;;;9.65;;
62268;SDS011;56517;51.634;5.566;2023-04-25T01:51:35;18.52;;;9.52;;
62268;SDS011;56517;51.634;5.566;2023-04-25T01:52:57;19.95;;;9.75;;
62268;SDS011;56517;51.634;5.566;2023-04-25T01:54:18;21.10;;;10.18;;
62268;SDS011;56517;51.634;5.566;2023-04-25T01:55:39;24.10;;;10.43;;
62268;SDS011;56517;51.634;5.566;2023-04-25T01:57:00;24.27;;;12.07;;
62268;SDS011;56517;51.634;5.566;2023-04-25T01:58:22;18.60;;;10.43;;
62268;SDS011;56517;51.634;5.566;2023-04-25T01:59:43;23.77;;;10.02;;
62268;SDS011;56517;51.634;5.566;2023-04-25T02:01:04;29.38;;;12.85;;
62268;SDS011;56517;51.634;5.566;2023-04-25T02:02:25;22.17;;;11.10;;
62268;SDS011;56517;51.634;5.566;2023-04-25T02:03:46;22.63;;;10.30;;
62268;SDS011;56517;51.634;5.566;2023-04-25T02:05:07;27.70;;;12.57;;
62268;SDS011;56517;51.634;5.566;2023-04-25T02:06:28;23.30;;;11.00;;
62268;SDS011;56517;51.634;5.566;2023-04-25T02:07:49;22.48;;;10.77;;
62268;SDS011;56517;51.634;5.566;2023-04-25T02:09:10;22.05;;;11.20;;
62268;SDS011;56517;51.634;5.566;2023-04-25T02:10:31;27.85;;;11.85;;
62268;SDS011;56517;51.634;5.566;2023-04-25T02:11:52;26.42;;;10.90;;
62268;SDS011;56517;51.634;5.566;2023-04-25T02:13:13;21.88;;;11.43;;
62268;SDS011;56517;51.634;5.566;2023-04-25T02:14:34;24.08;;;11.75;;
62268;SDS011;56517;51.634;5.566;2023-04-25T02:15:55;24.35;;;11.45;;
62268;SDS011;56517;51.634;5.566;2023-04-25T02:17:16;25.95;;;9.80;;
62268;SDS011;56517;51.634;5.566;2023-04-25T02:18:37;30.25;;;11.52;;
62268;SDS011;56517;51.634;5.566;2023-04-25T02:19:58;29.90;;;11.05;;
62268;SDS011;56517;51.634;5.566;2023-04-25T02:21:19;25.10;;;11.02;;
62268;SDS011;56517;51.634;5.566;2023-04-25T02:22:40;26.25;;;11.88;;
62268;SDS011;56517;51.634;5.566;2023-04-25T02:24:01;24.77;;;11.05;;
62268;SDS011;56517;51.634;5.566;2023-04-25T02:25:22;27.23;;;11.32;;
62268;SDS011;56517;51.634;5.566;2023-04-25T02:26:43;19.90;;;11.18;;
62268;SDS011;56517;51.634;5.566;2023-04-25T02:28:04;25.98;;;11.30;;
62268;SDS011;56517;51.634;5.566;2023-04-25T02:29:25;24.30;;;12.35;;
62268;SDS011;56517;51.634;5.566;2023-04-25T02:30:46;28.23;;;12.25;;
62268;SDS011;56517;51.634;5.566;2023-04-25T02:32:07;25.42;;;10.75;;
62268;SDS011;56517;51.634;5.566;2023-04-25T02:33:28;28.48;;;11.70;;
62268;SDS011;56517;51.634;5.566;2023-04-25T02:34:49;26.40;;;11.13;;
62268;SDS011;56517;51.634;5.566;2023-04-25T02:36:10;30.92;;;11.38;;
62268;SDS011;56517;51.634;5.566;2023-04-25T02:37:34;28.25;;;11.35;;
62268;SDS011;56517;51.634;5.566;2023-04-25T02:38:56;30.20;;;11.30;;
62268;SDS011;56517;51.634;5.566;2023-04-25T02:40:17;24.17;;;11.02;;
62268;SDS011;56517;51.634;5.566;2023-04-25T02:41:38;30.95;;;11.77;;
62268;SDS011;56517;51.634;5.566;2023-04-25T02:42:59;20.13;;;9.88;;
62268;SDS011;56517;51.634;5.566;2023-04-25T02:44:19;25.92;;;11.48;;
62268;SDS011;56517;51.634;5.566;2023-04-25T02:45:40;24.13;;;11.18;;
62268;SDS011;56517;51.634;5.566;2023-04-25T02:47:01;30.48;;;12.52;;
62268;SDS011;56517;51.634;5.566;2023-04-25T02:48:22;20.58;;;12.23;;
62268;SDS011;56517;51.634;5.566;2023-04-25T02:49:46;23.95;;;11.57;;
62268;SDS011;56517;51.634;5.566;2023-04-25T02:51:07;24.70;;;11.65;;
62268;SDS011;56517;51.634;5.566;2023-04-25T02:52:28;26.50;;;13.05;;
62268;SDS011;56517;51.634;5.566;2023-04-25T02:53:49;21.98;;;11.02;;
62268;SDS011;56517;51.634;5.566;2023-04-25T02:55:12;22.33;;;11.40;;
62268;SDS011;56517;51.634;5.566;2023-04-25T02:56:33;22.42;;;10.75;;
62268;SDS011;56517;51.634;5.566;2023-04-25T02:57:54;25.73;;;11.57;;
62268;SDS011;56517;51.634;5.566;2023-04-25T02:59:16;24.33;;;11.13;;
62268;SDS011;56517;51.634;5.566;2023-04-25T03:00:36;34.88;;;12.10;;
62268;SDS011;56517;51.634;5.566;2023-04-25T03:01:57;24.92;;;11.77;;
62268;SDS011;56517;51.634;5.566;2023-04-25T03:03:18;25.55;;;11.73;;
62268;SDS011;56517;51.634;5.566;2023-04-25T03:04:42;24.77;;;11.25;;
62268;SDS011;56517;51.634;5.566;2023-04-25T03:06:03;28.85;;;11.32;;
62268;SDS011;56517;51.634;5.566;2023-04-25T03:07:24;30.33;;;12.07;;
62268;SDS011;56517;51.634;5.566;2023-04-25T03:08:45;21.70;;;10.63;;
62268;SDS011;56517;51.634;5.566;2023-04-25T03:10:06;25.45;;;10.93;;
62268;SDS011;56517;51.634;5.566;2023-04-25T03:11:27;23.63;;;10.90;;
62268;SDS011;56517;51.634;5.566;2023-04-25T03:12:48;25.77;;;11.02;;
62268;SDS011;56517;51.634;5.566;2023-04-25T03:14:09;26.42;;;11.85;;
62268;SDS011;56517;51.634;5.566;2023-04-25T03:15:30;27.83;;;11.27;;
62268;SDS011;56517;51.634;5.566;2023-04-25T03:16:51;29.30;;;12.07;;
62268;SDS011;56517;51.634;5.566;2023-04-25T03:18:12;22.70;;;10.70;;
62268;SDS011;56517;51.634;5.566;2023-04-25T03:19:33;21.15;;;11.52;;
62268;SDS011;56517;51.634;5.566;2023-04-25T03:20:54;29.23;;;11.55;;
62268;SDS011;56517;51.634;5.566;2023-04-25T03:22:15;26.52;;;11.40;;
62268;SDS011;56517;51.634;5.566;2023-04-25T03:23:36;29.17;;;11.30;;
62268;SDS011;56517;51.634;5.566;2023-04-25T03:24:57;27.02;;;12.27;;
62268;SDS011;56517;51.634;5.566;2023-04-25T03:26:18;23.77;;;11.05;;
62268;SDS011;56517;51.634;5.566;2023-04-25T03:27:39;24.02;;;11.38;;
62268;SDS011;56517;51.634;5.566;2023-04-25T03:29:00;24.80;;;11.25;;
62268;SDS011;56517;51.634;5.566;2023-04-25T03:30:21;20.10;;;10.30;;
62268;SDS011;56517;51.634;5.566;2023-04-25T03:31:42;30.45;;;12.35;;
62268;SDS011;56517;51.634;5.566;2023-04-25T03:33:03;21.92;;;11.27;;
62268;SDS011;56517;51.634;5.566;2023-04-25T03:34:24;27.25;;;12.00;;
62268;SDS011;56517;51.634;5.566;2023-04-25T03:35:44;21.23;;;10.35;;
62268;SDS011;56517;51.634;5.566;2023-04-25T03:37:06;27.67;;;11.13;;
62268;SDS011;56517;51.634;5.566;2023-04-25T03:38:27;26.70;;;13.27;;
62268;SDS011;56517;51.634;5.566;2023-04-25T03:39:47;24.38;;;11.73;;
62268;SDS011;56517;51.634;5.566;2023-04-25T03:41:08;30.10;;;12.20;;
62268;SDS011;56517;51.634;5.566;2023-04-25T03:42:29;22.20;;;11.52;;
62268;SDS011;56517;51.634;5.566;2023-04-25T03:43:50;24.40;;;11.30;;
62268;SDS011;56517;51.634;5.566;2023-04-25T03:45:11;26.83;;;12.13;;
62268;SDS011;56517;51.634;5.566;2023-04-25T03:46:32;22.70;;;10.77;;
62268;SDS011;56517;51.634;5.566;2023-04-25T03:47:53;21.67;;;11.18;;
62268;SDS011;56517;51.634;5.566;2023-04-25T03:49:14;20.00;;;10.20;;
62268;SDS011;56517;51.634;5.566;2023-04-25T03:50:35;23.92;;;11.77;;
62268;SDS011;56517;51.634;5.566;2023-04-25T03:51:56;30.08;;;11.55;;
62268;SDS011;56517;51.634;5.566;2023-04-25T03:53:17;28.42;;;11.05;;
62268;SDS011;56517;51.634;5.566;2023-04-25T03:54:38;23.35;;;10.77;;
62268;SDS011;56517;51.634;5.566;2023-04-25T03:55:59;25.20;;;11.05;;
62268;SDS011;56517;51.634;5.566;2023-04-25T03:57:20;24.58;;;11.82;;
62268;SDS011;56517;51.634;5.566;2023-04-25T03:58:40;34.33;;;13.50;;
62268;SDS011;56517;51.634;5.566;2023-04-25T04:00:03;29.88;;;12.43;;
62268;SDS011;56517;51.634;5.566;2023-04-25T04:01:24;25.67;;;10.55;;
62268;SDS011;56517;51.634;5.566;2023-04-25T04:02:45;23.33;;;11.68;;
62268;SDS011;56517;51.634;5.566;2023-04-25T04:04:06;30.30;;;12.15;;
62268;SDS011;56517;51.634;5.566;2023-04-25T04:05:27;28.48;;;12.48;;
62268;SDS011;56517;51.634;5.566;2023-04-25T04:06:49;28.80;;;12.02;;
62268;SDS011;56517;51.634;5.566;2023-04-25T04:08:10;23.92;;;11.68;;
62268;SDS011;56517;51.634;5.566;2023-04-25T04:09:31;23.10;;;11.45;;
62268;SDS011;56517;51.634;5.566;2023-04-25T04:10:52;23.73;;;11.18;;
62268;SDS011;56517;51.634;5.566;2023-04-25T04:12:13;19.92;;;10.95;;
62268;SDS011;56517;51.634;5.566;2023-04-25T04:13:34;21.67;;;12.32;;
62268;SDS011;56517;51.634;5.566;2023-04-25T04:14:54;26.00;;;11.38;;
62268;SDS011;56517;51.634;5.566;2023-04-25T04:16:15;26.23;;;12.63;;
62268;SDS011;56517;51.634;5.566;2023-04-25T04:17:36;26.65;;;11.75;;
62268;SDS011;56517;51.634;5.566;2023-04-25T04:18:57;25.38;;;11.55;;
62268;SDS011;56517;51.634;5.566;2023-04-25T04:20:18;25.33;;;11.55;;
62268;SDS011;56517;51.634;5.566;2023-04-25T04:21:39;21.52;;;11.50;;
62268;SDS011;56517;51.634;5.566;2023-04-25T04:23:00;24.27;;;11.55;;
62268;SDS011;56517;51.634;5.566;2023-04-25T04:24:21;26.48;;;11.38;;
62268;SDS011;56517;51.634;5.566;2023-04-25T04:25:42;27.40;;;12.02;;
62268;SDS011;56517;51.634;5.566;2023-04-25T04:27:03;27.65;;;10.82;;
62268;SDS011;56517;51.634;5.566;2023-04-25T04:28:24;21.45;;;11.13;;
62268;SDS011;56517;51.634;5.566;2023-04-25T04:29:47;28.10;;;11.63;;
62268;SDS011;56517;51.634;5.566;2023-04-25T04:31:08;32.30;;;12.80;;
62268;SDS011;56517;51.634;5.566;2023-04-25T04:33:51;28.80;;;12.15;;
62268;SDS011;56517;51.634;5.566;2023-04-25T04:35:12;27.38;;;12.05;;
62268;SDS011;56517;51.634;5.566;2023-04-25T04:36:33;26.85;;;11.32;;
62268;SDS011;56517;51.634;5.566;2023-04-25T04:37:54;28.42;;;12.93;;
62268;SDS011;56517;51.634;5.566;2023-04-25T04:39:15;31.40;;;12.25;;
62268;SDS011;56517;51.634;5.566;2023-04-25T04:40:36;31.23;;;11.98;;
62268;SDS011;56517;51.634;5.566;2023-04-25T04:41:58;28.48;;;12.43;;
62268;SDS011;56517;51.634;5.566;2023-04-25T04:43:19;22.17;;;12.00;;
62268;SDS011;56517;51.634;5.566;2023-04-25T04:44:40;25.10;;;11.68;;
62268;SDS011;56517;51.634;5.566;2023-04-25T04:46:01;28.58;;;12.30;;
62268;SDS011;56517;51.634;5.566;2023-04-25T04:47:21;23.25;;;11.52;;
62268;SDS011;56517;51.634;5.566;2023-04-25T04:48:44;29.48;;;11.88;;
62268;SDS011;56517;51.634;5.566;2023-04-25T04:50:08;26.48;;;11.70;;
62268;SDS011;56517;51.634;5.566;2023-04-25T04:51:29;40.20;;;13.52;;
62268;SDS011;56517;51.634;5.566;2023-04-25T04:52:51;35.17;;;11.88;;
62268;SDS011;56517;51.634;5.566;2023-04-25T04:54:12;23.73;;;10.73;;
62268;SDS011;56517;51.634;5.566;2023-04-25T04:55:33;28.90;;;12.30;;
62268;SDS011;56517;51.634;5.566;2023-04-25T04:56:55;29.50;;;11.75;;
62268;SDS011;56517;51.634;5.566;2023-04-25T04:58:16;21.17;;;10.40;;
62268;SDS011;56517;51.634;5.566;2023-04-25T04:59:37;30.75;;;12.15;;
62268;SDS011;56517;51.634;5.566;2023-04-25T05:00:58;29.30;;;12.50;;
62268;SDS011;56517;51.634;5.566;2023-04-25T05:02:19;24.88;;;11.48;;
62268;SDS011;56517;51.634;5.566;2023-04-25T05:03:40;28.70;;;12.52;;
62268;SDS011;56517;51.634;5.566;2023-04-25T05:05:01;26.42;;;12.23;;
62268;SDS011;56517;51.634;5.566;2023-04-25T05:06:22;37.60;;;14.23;;
62268;SDS011;56517;51.634;5.566;2023-04-25T05:07:43;27.98;;;12.85;;
62268;SDS011;56517;51.634;5.566;2023-04-25T05:09:04;27.20;;;12.70;;
62268;SDS011;56517;51.634;5.566;2023-04-25T05:10:25;28.63;;;11.95;;
62268;SDS011;56517;51.634;5.566;2023-04-25T05:11:46;26.17;;;12.38;;
62268;SDS011;56517;51.634;5.566;2023-04-25T05:13:07;26.23;;;12.05;;
62268;SDS011;56517;51.634;5.566;2023-04-25T05:14:28;29.35;;;11.20;;
62268;SDS011;56517;51.634;5.566;2023-04-25T05:15:49;27.05;;;11.77;;
62268;SDS011;56517;51.634;5.566;2023-04-25T05:17:10;23.85;;;11.27;;
62268;SDS011;56517;51.634;5.566;2023-04-25T05:18:31;22.52;;;11.77;;
62268;SDS011;56517;51.634;5.566;2023-04-25T05:19:52;28.58;;;10.60;;
62268;SDS011;56517;51.634;5.566;2023-04-25T05:21:13;23.17;;;12.43;;
62268;SDS011;56517;51.634;5.566;2023-04-25T05:22:34;26.58;;;11.40;;
62268;SDS011;56517;51.634;5.566;2023-04-25T05:23:55;27.15;;;12.07;;
62268;SDS011;56517;51.634;5.566;2023-04-25T05:25:16;35.45;;;11.77;;
62268;SDS011;56517;51.634;5.566;2023-04-25T05:26:37;24.55;;;11.13;;
62268;SDS011;56517;51.634;5.566;2023-04-25T05:27:58;29.30;;;11.30;;
62268;SDS011;56517;51.634;5.566;2023-04-25T05:29:19;21.15;;;10.60;;
62268;SDS011;56517;51.634;5.566;2023-04-25T05:30:40;20.60;;;9.93;;
62268;SDS011;56517;51.634;5.566;2023-04-25T05:32:01;18.83;;;11.00;;
62268;SDS011;56517;51.634;5.566;2023-04-25T05:33:22;24.95;;;11.07;;
62268;SDS011;56517;51.634;5.566;2023-04-25T05:34:42;24.02;;;11.63;;
62268;SDS011;56517;51.634;5.566;2023-04-25T05:36:03;22.73;;;10.70;;
62268;SDS011;56517;51.634;5.566;2023-04-25T05:37:24;22.35;;;11.00;;
62268;SDS011;56517;51.634;5.566;2023-04-25T05:38:45;26.55;;;10.98;;
62268;SDS011;56517;51.634;5.566;2023-04-25T05:40:07;22.30;;;10.38;;
62268;SDS011;56517;51.634;5.566;2023-04-25T05:41:28;25.98;;;11.88;;
62268;SDS011;56517;51.634;5.566;2023-04-25T05:42:49;25.42;;;13.30;;
62268;SDS011;56517;51.634;5.566;2023-04-25T05:44:10;20.30;;;11.52;;
62268;SDS011;56517;51.634;5.566;2023-04-25T05:45:31;22.95;;;11.27;;
62268;SDS011;56517;51.634;5.566;2023-04-25T05:46:51;22.52;;;10.43;;
62268;SDS011;56517;51.634;5.566;2023-04-25T05:48:12;20.48;;;10.95;;
62268;SDS011;56517;51.634;5.566;2023-04-25T05:49:34;22.50;;;11.10;;
62268;SDS011;56517;51.634;5.566;2023-04-25T05:50:55;26.73;;;11.93;;
62268;SDS011;56517;51.634;5.566;2023-04-25T05:52:15;27.98;;;11.90;;
62268;SDS011;56517;51.634;5.566;2023-04-25T05:53:36;24.42;;;11.10;;
62268;SDS011;56517;51.634;5.566;2023-04-25T05:54:57;21.10;;;11.40;;
62268;SDS011;56517;51.634;5.566;2023-04-25T05:56:18;20.70;;;10.77;;
62268;SDS011;56517;51.634;5.566;2023-04-25T05:57:39;21.95;;;10.07;;
62268;SDS011;56517;51.634;5.566;2023-04-25T05:59:02;22.50;;;11.43;;
62268;SDS011;56517;51.634;5.566;2023-04-25T06:00:23;24.08;;;10.88;;
62268;SDS011;56517;51.634;5.566;2023-04-25T06:01:45;31.65;;;11.25;;
62268;SDS011;56517;51.634;5.566;2023-04-25T06:03:07;20.23;;;10.50;;
62268;SDS011;56517;51.634;5.566;2023-04-25T06:04:30;21.02;;;10.60;;
62268;SDS011;56517;51.634;5.566;2023-04-25T06:05:51;23.98;;;10.85;;
62268;SDS011;56517;51.634;5.566;2023-04-25T06:07:12;18.52;;;10.45;;
62268;SDS011;56517;51.634;5.566;2023-04-25T06:08:33;23.27;;;11.43;;
62268;SDS011;56517;51.634;5.566;2023-04-25T06:09:54;22.85;;;10.82;;
62268;SDS011;56517;51.634;5.566;2023-04-25T06:11:15;25.00;;;10.90;;
62268;SDS011;56517;51.634;5.566;2023-04-25T06:12:36;26.50;;;10.18;;
62268;SDS011;56517;51.634;5.566;2023-04-25T06:13:57;20.48;;;10.50;;
62268;SDS011;56517;51.634;5.566;2023-04-25T06:15:18;22.67;;;10.52;;
62268;SDS011;56517;51.634;5.566;2023-04-25T06:16:39;25.17;;;11.70;;
62268;SDS011;56517;51.634;5.566;2023-04-25T06:18:00;18.65;;;10.52;;
62268;SDS011;56517;51.634;5.566;2023-04-25T06:19:21;18.38;;;11.00;;
62268;SDS011;56517;51.634;5.566;2023-04-25T06:20:41;19.85;;;10.35;;
62268;SDS011;56517;51.634;5.566;2023-04-25T06:22:02;22.17;;;11.25;;
62268;SDS011;56517;51.634;5.566;2023-04-25T06:23:23;24.45;;;10.88;;
62268;SDS011;56517;51.634;5.566;2023-04-25T06:24:44;22.60;;;10.20;;
62268;SDS011;56517;51.634;5.566;2023-04-25T06:26:06;21.08;;;10.40;;
62268;SDS011;56517;51.634;5.566;2023-04-25T06:27:27;21.40;;;10.32;;
62268;SDS011;56517;51.634;5.566;2023-04-25T06:28:48;20.33;;;10.15;;
62268;SDS011;56517;51.634;5.566;2023-04-25T06:30:09;16.40;;;9.68;;
62268;SDS011;56517;51.634;5.566;2023-04-25T06:31:32;16.83;;;9.90;;
62268;SDS011;56517;51.634;5.566;2023-04-25T06:34:15;19.90;;;9.82;;
62268;SDS011;56517;51.634;5.566;2023-04-25T06:35:36;18.70;;;10.17;;
62268;SDS011;56517;51.634;5.566;2023-04-25T06:36:57;22.48;;;10.35;;
62268;SDS011;56517;51.634;5.566;2023-04-25T06:38:18;15.40;;;9.15;;
62268;SDS011;56517;51.634;5.566;2023-04-25T06:39:39;21.10;;;9.07;;
62268;SDS011;56517;51.634;5.566;2023-04-25T06:41:00;21.35;;;8.63;;
62268;SDS011;56517;51.634;5.566;2023-04-25T06:42:21;26.75;;;9.40;;
62268;SDS011;56517;51.634;5.566;2023-04-25T06:43:42;18.48;;;8.40;;
62268;SDS011;56517;51.634;5.566;2023-04-25T06:45:03;14.60;;;7.95;;
62268;SDS011;56517;51.634;5.566;2023-04-25T06:46:24;29.27;;;8.65;;
62268;SDS011;56517;51.634;5.566;2023-04-25T06:47:45;21.15;;;8.48;;
62268;SDS011;56517;51.634;5.566;2023-04-25T06:49:06;14.90;;;7.65;;
62268;SDS011;56517;51.634;5.566;2023-04-25T06:50:26;15.63;;;7.75;;
62268;SDS011;56517;51.634;5.566;2023-04-25T06:51:48;21.40;;;8.13;;
62268;SDS011;56517;51.634;5.566;2023-04-25T06:53:08;25.30;;;8.32;;
62268;SDS011;56517;51.634;5.566;2023-04-25T06:54:29;21.02;;;7.85;;
62268;SDS011;56517;51.634;5.566;2023-04-25T06:55:50;23.70;;;8.10;;
62268;SDS011;56517;51.634;5.566;2023-04-25T06:57:11;17.13;;;7.90;;
62268;SDS011;56517;51.634;5.566;2023-04-25T06:58:32;13.60;;;7.20;;
62268;SDS011;56517;51.634;5.566;2023-04-25T06:59:53;20.05;;;7.63;;
62268;SDS011;56517;51.634;5.566;2023-04-25T07:01:14;13.60;;;7.40;;
62268;SDS011;56517;51.634;5.566;2023-04-25T07:02:35;19.48;;;7.30;;
62268;SDS011;56517;51.634;5.566;2023-04-25T07:03:56;18.00;;;7.40;;
62268;SDS011;56517;51.634;5.566;2023-04-25T07:05:17;12.40;;;6.25;;
62268;SDS011;56517;51.634;5.566;2023-04-25T07:06:38;15.15;;;6.30;;
62268;SDS011;56517;51.634;5.566;2023-04-25T07:08:03;15.43;;;6.80;;
62268;SDS011;56517;51.634;5.566;2023-04-25T07:09:24;21.50;;;8.50;;
62268;SDS011;56517;51.634;5.566;2023-04-25T07:10:45;19.98;;;7.55;;
62268;SDS011;56517;51.634;5.566;2023-04-25T07:12:06;16.77;;;6.28;;
62268;SDS011;56517;51.634;5.566;2023-04-25T07:13:27;15.35;;;6.70;;
62268;SDS011;56517;51.634;5.566;2023-04-25T07:14:48;21.50;;;7.25;;
62268;SDS011;56517;51.634;5.566;2023-04-25T07:16:09;21.35;;;7.20;;
62268;SDS011;56517;51.634;5.566;2023-04-25T07:17:30;22.70;;;7.40;;
62268;SDS011;56517;51.634;5.566;2023-04-25T07:18:51;12.23;;;6.40;;
62268;SDS011;56517;51.634;5.566;2023-04-25T07:20:12;14.02;;;6.90;;
62268;SDS011;56517;51.634;5.566;2023-04-25T07:21:33;11.85;;;6.88;;
62268;SDS011;56517;51.634;5.566;2023-04-25T07:22:54;12.93;;;6.18;;
62268;SDS011;56517;51.634;5.566;2023-04-25T07:24:15;18.73;;;7.15;;
62268;SDS011;56517;51.634;5.566;2023-04-25T07:25:36;13.38;;;6.88;;
62268;SDS011;56517;51.634;5.566;2023-04-25T07:26:57;18.63;;;6.95;;
62268;SDS011;56517;51.634;5.566;2023-04-25T07:28:18;13.15;;;6.70;;
62268;SDS011;56517;51.634;5.566;2023-04-25T07:29:39;17.90;;;6.78;;
62268;SDS011;56517;51.634;5.566;2023-04-25T07:31:00;19.67;;;6.90;;
62268;SDS011;56517;51.634;5.566;2023-04-25T07:32:21;12.80;;;6.10;;
62268;SDS011;56517;51.634;5.566;2023-04-25T07:33:42;15.75;;;6.68;;
62268;SDS011;56517;51.634;5.566;2023-04-25T07:35:03;14.43;;;6.28;;
62268;SDS011;56517;51.634;5.566;2023-04-25T07:36:24;17.98;;;6.78;;
62268;SDS011;56517;51.634;5.566;2023-04-25T07:37:47;15.82;;;6.30;;
62268;SDS011;56517;51.634;5.566;2023-04-25T07:39:07;14.10;;;5.85;;
62268;SDS011;56517;51.634;5.566;2023-04-25T07:40:29;14.32;;;5.70;;
62268;SDS011;56517;51.634;5.566;2023-04-25T07:41:50;14.55;;;6.40;;
62268;SDS011;56517;51.634;5.566;2023-04-25T07:43:11;13.45;;;6.05;;
62268;SDS011;56517;51.634;5.566;2023-04-25T07:44:35;13.68;;;6.53;;
62268;SDS011;56517;51.634;5.566;2023-04-25T07:46:02;12.68;;;6.65;;
62268;SDS011;56517;51.634;5.566;2023-04-25T07:47:23;16.45;;;6.68;;
62268;SDS011;56517;51.634;5.566;2023-04-25T07:48:44;17.95;;;6.95;;
62268;SDS011;56517;51.634;5.566;2023-04-25T07:50:05;15.00;;;6.35;;
62268;SDS011;56517;51.634;5.566;2023-04-25T07:51:27;16.83;;;6.75;;
62268;SDS011;56517;51.634;5.566;2023-04-25T07:52:48;15.68;;;6.25;;
62268;SDS011;56517;51.634;5.566;2023-04-25T07:54:09;13.18;;;6.68;;
62268;SDS011;56517;51.634;5.566;2023-04-25T07:55:30;15.20;;;6.63;;
62268;SDS011;56517;51.634;5.566;2023-04-25T07:56:51;13.75;;;7.40;;
62268;SDS011;56517;51.634;5.566;2023-04-25T07:58:12;10.57;;;6.05;;
62268;SDS011;56517;51.634;5.566;2023-04-25T07:59:33;24.98;;;10.88;;
62268;SDS011;56517;51.634;5.566;2023-04-25T08:00:54;16.30;;;7.13;;
62268;SDS011;56517;51.634;5.566;2023-04-25T08:02:15;16.75;;;6.95;;
62268;SDS011;56517;51.634;5.566;2023-04-25T08:03:36;12.65;;;6.63;;
62268;SDS011;56517;51.634;5.566;2023-04-25T08:04:57;15.48;;;7.32;;
62268;SDS011;56517;51.634;5.566;2023-04-25T08:06:18;16.20;;;7.40;;